sensor_id;sensor_type;location;lat;lon;timestamp;temperature;humidity
65036;DHT22;51603;49.300;8.880;2023-02-18T00:00:56;11.60;99.90
65036;DHT22;51603;49.300;8.880;2023-02-18T00:03:26;11.60;99.90
65036;DHT22;51603;49.300;8.880;2023-02-18T00:05:52;11.60;99.90
65036;DHT22;51603;49.300;8.880;2023-02-18T00:08:19;11.60;99.90
65036;DHT22;51603;49.300;8.880;2023-02-18T00:10:44;11.60;99.90
65036;DHT22;51603;49.300;8.880;2023-02-18T00:13:10;11.50;99.90
65036;DHT22;51603;49.300;8.880;2023-02-18T00:15:36;11.50;99.90
65036;DHT22;51603;49.300;8.880;2023-02-18T00:18:02;11.50;99.90
65036;DHT22;51603;49.300;8.880;2023-02-18T00:20:28;11.50;99.90
65036;DHT22;51603;49.300;8.880;2023-02-18T00:22:53;11.50;99.90
65036;DHT22;51603;49.300;8.880;2023-02-18T00:25:19;11.50;99.90
65036;DHT22;51603;49.300;8.880;2023-02-18T00:27:44;11.50;99.90
65036;DHT22;51603;49.300;8.880;2023-02-18T00:30:10;11.60;99.90
65036;DHT22;51603;49.300;8.880;2023-02-18T00:32:36;11.60;99.90
65036;DHT22;51603;49.300;8.880;2023-02-18T00:35:01;11.60;99.90
65036;DHT22;51603;49.300;8.880;2023-02-18T00:37:27;11.60;99.90
65036;DHT22;51603;49.300;8.880;2023-02-18T00:39:53;11.50;99.90
65036;DHT22;51603;49.300;8.880;2023-02-18T00:42:19;11.60;99.90
65036;DHT22;51603;49.300;8.880;2023-02-18T00:44:44;11.60;99.90
65036;DHT22;51603;49.300;8.880;2023-02-18T00:47:10;11.60;99.90
65036;DHT22;51603;49.300;8.880;2023-02-18T00:49:35;11.60;99.90
65036;DHT22;51603;49.300;8.880;2023-02-18T00:52:01;11.50;99.90
65036;DHT22;51603;49.300;8.880;2023-02-18T00:54:26;11.50;99.90
65036;DHT22;51603;49.300;8.880;2023-02-18T00:56:52;11.50;99.90
65036;DHT22;51603;49.300;8.880;2023-02-18T00:59:17;11.50;99.90
65036;DHT22;51603;49.300;8.880;2023-02-18T01:01:43;11.50;99.90
65036;DHT22;51603;49.300;8.880;2023-02-18T01:04:08;11.50;99.90
65036;DHT22;51603;49.300;8.880;2023-02-18T01:06:34;11.50;99.90
65036;DHT22;51603;49.300;8.880;2023-02-18T01:09:00;11.50;99.90
65036;DHT22;51603;49.300;8.880;2023-02-18T01:11:25;11.50;99.90
65036;DHT22;51603;49.300;8.880;2023-02-18T01:13:51;11.50;99.90
65036;DHT22;51603;49.300;8.880;2023-02-18T01:16:16;11.40;99.90
65036;DHT22;51603;49.300;8.880;2023-02-18T01:18:42;11.40;99.90
65036;DHT22;51603;49.300;8.880;2023-02-18T01:21:08;11.40;99.90
65036;DHT22;51603;49.300;8.880;2023-02-18T01:23:36;11.40;99.90
65036;DHT22;51603;49.300;8.880;2023-02-18T01:26:01;11.30;99.90
65036;DHT22;51603;49.300;8.880;2023-02-18T01:28:27;11.30;99.90
65036;DHT22;51603;49.300;8.880;2023-02-18T01:30:53;11.30;99.90
65036;DHT22;51603;49.300;8.880;2023-02-18T01:33:19;11.30;99.90
65036;DHT22;51603;49.300;8.880;2023-02-18T01:35:45;11.30;99.90
65036;DHT22;51603;49.300;8.880;2023-02-18T01:38:11;11.30;99.90
65036;DHT22;51603;49.300;8.880;2023-02-18T01:40:47;11.30;99.90
65036;DHT22;51603;49.300;8.880;2023-02-18T01:43:14;11.30;99.90
65036;DHT22;51603;49.300;8.880;2023-02-18T01:45:59;11.30;99.90
65036;DHT22;51603;49.300;8.880;2023-02-18T01:51:11;11.20;99.90
65036;DHT22;51603;49.300;8.880;2023-02-18T01:56:15;11.30;99.90
65036;DHT22;51603;49.300;8.880;2023-02-18T01:58:44;11.30;99.90
65036;DHT22;51603;49.300;8.880;2023-02-18T02:01:10;11.30;99.90
65036;DHT22;51603;49.300;8.880;2023-02-18T02:03:35;11.20;99.90
65036;DHT22;51603;49.300;8.880;2023-02-18T02:06:01;11.20;99.90
65036;DHT22;51603;49.300;8.880;2023-02-18T02:08:28;11.30;99.90
65036;DHT22;51603;49.300;8.880;2023-02-18T02:11:27;11.30;99.90
65036;DHT22;51603;49.300;8.880;2023-02-18T02:17:09;11.30;99.90
65036;DHT22;51603;49.300;8.880;2023-02-18T02:20:02;11.30;99.90
65036;DHT22;51603;49.300;8.880;2023-02-18T02:25:14;11.30;99.90
65036;DHT22;51603;49.300;8.880;2023-02-18T02:28:20;11.30;99.90
65036;DHT22;51603;49.300;8.880;2023-02-18T02:36:07;11.40;99.90
65036;DHT22;51603;49.300;8.880;2023-02-18T02:38:43;11.40;99.90
65036;DHT22;51603;49.300;8.880;2023-02-18T02:41:25;11.50;99.90
65036;DHT22;51603;49.300;8.880;2023-02-18T02:44:29;11.40;99.90
65036;DHT22;51603;49.300;8.880;2023-02-18T02:47:07;11.40;99.90
65036;DHT22;51603;49.300;8.880;2023-02-18T02:49:47;11.40;99.90
65036;DHT22;51603;49.300;8.880;2023-02-18T02:52:22;11.30;99.90
65036;DHT22;51603;49.300;8.880;2023-02-18T02:54:49;11.40;99.90
65036;DHT22;51603;49.300;8.880;2023-02-18T02:59:48;11.30;99.90
65036;DHT22;51603;49.300;8.880;2023-02-18T03:02:27;11.30;99.90
65036;DHT22;51603;49.300;8.880;2023-02-18T03:16:01;11.00;99.90
65036;DHT22;51603;49.300;8.880;2023-02-18T03:18:39;11.00;99.90
65036;DHT22;51603;49.300;8.880;2023-02-18T03:24:01;11.00;99.90
65036;DHT22;51603;49.300;8.880;2023-02-18T03:26:29;11.10;99.90
65036;DHT22;51603;49.300;8.880;2023-02-18T03:28:59;11.00;99.90
65036;DHT22;51603;49.300;8.880;2023-02-18T03:31:27;11.00;99.90
65036;DHT22;51603;49.300;8.880;2023-02-18T03:34:19;10.90;99.90
65036;DHT22;51603;49.300;8.880;2023-02-18T03:36:45;10.90;99.90
65036;DHT22;51603;49.300;8.880;2023-02-18T03:39:14;10.80;99.90
65036;DHT22;51603;49.300;8.880;2023-02-18T03:41:41;10.80;99.90
65036;DHT22;51603;49.300;8.880;2023-02-18T03:44:08;10.70;99.90
65036;DHT22;51603;49.300;8.880;2023-02-18T03:46:35;10.70;99.90
65036;DHT22;51603;49.300;8.880;2023-02-18T03:49:02;10.70;99.90
65036;DHT22;51603;49.300;8.880;2023-02-18T03:51:28;10.70;99.90
65036;DHT22;51603;49.300;8.880;2023-02-18T03:53:53;10.70;99.90
65036;DHT22;51603;49.300;8.880;2023-02-18T03:56:19;10.70;99.90
65036;DHT22;51603;49.300;8.880;2023-02-18T03:58:45;10.70;99.90
65036;DHT22;51603;49.300;8.880;2023-02-18T04:01:11;10.70;99.90
65036;DHT22;51603;49.300;8.880;2023-02-18T04:03:36;10.70;99.90
65036;DHT22;51603;49.300;8.880;2023-02-18T04:06:03;10.70;99.90
65036;DHT22;51603;49.300;8.880;2023-02-18T04:08:28;10.80;99.90
65036;DHT22;51603;49.300;8.880;2023-02-18T04:10:54;10.80;99.90
65036;DHT22;51603;49.300;8.880;2023-02-18T04:13:19;10.80;99.90
65036;DHT22;51603;49.300;8.880;2023-02-18T04:15:45;10.80;99.90
65036;DHT22;51603;49.300;8.880;2023-02-18T04:18:11;10.80;99.90
65036;DHT22;51603;49.300;8.880;2023-02-18T04:20:36;10.90;99.90
65036;DHT22;51603;49.300;8.880;2023-02-18T04:23:03;10.90;99.90
65036;DHT22;51603;49.300;8.880;2023-02-18T04:25:29;10.90;99.90
65036;DHT22;51603;49.300;8.880;2023-02-18T04:27:55;10.90;99.90
65036;DHT22;51603;49.300;8.880;2023-02-18T04:30:20;10.90;99.90
65036;DHT22;51603;49.300;8.880;2023-02-18T04:32:46;10.90;99.90
65036;DHT22;51603;49.300;8.880;2023-02-18T04:35:12;10.90;99.90
65036;DHT22;51603;49.300;8.880;2023-02-18T04:37:38;10.90;99.90
65036;DHT22;51603;49.300;8.880;2023-02-18T04:40:04;10.90;99.90
65036;DHT22;51603;49.300;8.880;2023-02-18T04:42:29;10.90;99.90
65036;DHT22;51603;49.300;8.880;2023-02-18T04:44:55;11.00;99.90
65036;DHT22;51603;49.300;8.880;2023-02-18T04:47:21;10.90;99.90
65036;DHT22;51603;49.300;8.880;2023-02-18T04:49:46;10.90;99.90
65036;DHT22;51603;49.300;8.880;2023-02-18T04:52:12;10.90;99.90
65036;DHT22;51603;49.300;8.880;2023-02-18T04:54:37;10.90;99.90
65036;DHT22;51603;49.300;8.880;2023-02-18T04:57:03;10.90;99.90
65036;DHT22;51603;49.300;8.880;2023-02-18T04:59:28;10.90;99.90
65036;DHT22;51603;49.300;8.880;2023-02-18T05:01:54;10.90;99.90
65036;DHT22;51603;49.300;8.880;2023-02-18T05:04:19;10.90;99.90
65036;DHT22;51603;49.300;8.880;2023-02-18T05:06:45;10.80;99.90
65036;DHT22;51603;49.300;8.880;2023-02-18T05:09:11;10.80;99.90
65036;DHT22;51603;49.300;8.880;2023-02-18T05:11:37;10.90;99.90
65036;DHT22;51603;49.300;8.880;2023-02-18T05:14:03;10.80;99.90
65036;DHT22;51603;49.300;8.880;2023-02-18T05:16:28;10.80;99.90
65036;DHT22;51603;49.300;8.880;2023-02-18T05:18:54;10.80;99.90
65036;DHT22;51603;49.300;8.880;2023-02-18T05:21:19;10.80;99.90
65036;DHT22;51603;49.300;8.880;2023-02-18T05:23:45;10.80;99.90
65036;DHT22;51603;49.300;8.880;2023-02-18T05:26:10;10.70;99.90
65036;DHT22;51603;49.300;8.880;2023-02-18T05:28:36;10.80;99.90
65036;DHT22;51603;49.300;8.880;2023-02-18T05:31:01;10.80;99.90
65036;DHT22;51603;49.300;8.880;2023-02-18T05:33:27;10.80;99.90
65036;DHT22;51603;49.300;8.880;2023-02-18T05:35:53;10.80;99.90
65036;DHT22;51603;49.300;8.880;2023-02-18T05:38:18;10.90;99.90
65036;DHT22;51603;49.300;8.880;2023-02-18T05:40:44;10.90;99.90
65036;DHT22;51603;49.300;8.880;2023-02-18T05:43:10;10.90;99.90
65036;DHT22;51603;49.300;8.880;2023-02-18T05:45:36;10.90;99.90
65036;DHT22;51603;49.300;8.880;2023-02-18T05:48:02;10.90;99.90
65036;DHT22;51603;49.300;8.880;2023-02-18T05:50:27;10.90;99.90
65036;DHT22;51603;49.300;8.880;2023-02-18T05:52:53;10.90;99.90
65036;DHT22;51603;49.300;8.880;2023-02-18T05:55:19;10.90;99.90
65036;DHT22;51603;49.300;8.880;2023-02-18T05:57:44;10.90;99.90
65036;DHT22;51603;49.300;8.880;2023-02-18T06:00:10;10.90;99.90
65036;DHT22;51603;49.300;8.880;2023-02-18T06:02:36;10.90;99.90
65036;DHT22;51603;49.300;8.880;2023-02-18T06:05:03;10.90;99.90
65036;DHT22;51603;49.300;8.880;2023-02-18T06:07:28;10.90;99.90
65036;DHT22;51603;49.300;8.880;2023-02-18T06:09:54;10.90;99.90
65036;DHT22;51603;49.300;8.880;2023-02-18T06:12:20;10.80;99.90
65036;DHT22;51603;49.300;8.880;2023-02-18T06:14:45;10.80;99.90
65036;DHT22;51603;49.300;8.880;2023-02-18T06:17:12;10.80;99.90
65036;DHT22;51603;49.300;8.880;2023-02-18T06:19:38;10.80;99.90
65036;DHT22;51603;49.300;8.880;2023-02-18T06:22:04;10.80;99.90
65036;DHT22;51603;49.300;8.880;2023-02-18T06:24:30;10.80;99.90
65036;DHT22;51603;49.300;8.880;2023-02-18T06:26:55;10.90;99.90
65036;DHT22;51603;49.300;8.880;2023-02-18T06:29:21;10.80;99.90
65036;DHT22;51603;49.300;8.880;2023-02-18T06:31:47;10.80;99.90
65036;DHT22;51603;49.300;8.880;2023-02-18T06:34:12;10.80;99.90
65036;DHT22;51603;49.300;8.880;2023-02-18T06:36:38;10.80;99.90
65036;DHT22;51603;49.300;8.880;2023-02-18T06:39:04;10.80;99.90
65036;DHT22;51603;49.300;8.880;2023-02-18T06:41:30;10.80;99.90
65036;DHT22;51603;49.300;8.880;2023-02-18T06:43:56;10.70;99.90
65036;DHT22;51603;49.300;8.880;2023-02-18T06:46:21;10.80;99.90
65036;DHT22;51603;49.300;8.880;2023-02-18T06:48:47;10.70;99.90
65036;DHT22;51603;49.300;8.880;2023-02-18T06:51:13;10.70;99.90
65036;DHT22;51603;49.300;8.880;2023-02-18T06:53:40;10.80;99.90
65036;DHT22;51603;49.300;8.880;2023-02-18T06:56:06;10.80;99.90
65036;DHT22;51603;49.300;8.880;2023-02-18T06:58:31;10.80;99.90
65036;DHT22;51603;49.300;8.880;2023-02-18T07:00:57;10.80;99.90
65036;DHT22;51603;49.300;8.880;2023-02-18T07:03:23;10.80;99.90
65036;DHT22;51603;49.300;8.880;2023-02-18T07:05:48;10.80;99.90
65036;DHT22;51603;49.300;8.880;2023-02-18T07:08:14;10.80;99.90
65036;DHT22;51603;49.300;8.880;2023-02-18T07:10:39;10.80;99.90
65036;DHT22;51603;49.300;8.880;2023-02-18T07:13:05;10.80;99.90
65036;DHT22;51603;49.300;8.880;2023-02-18T07:15:31;10.80;99.90
65036;DHT22;51603;49.300;8.880;2023-02-18T07:17:56;10.80;99.90
65036;DHT22;51603;49.300;8.880;2023-02-18T07:20:22;10.90;99.90
65036;DHT22;51603;49.300;8.880;2023-02-18T07:22:48;10.90;99.90
65036;DHT22;51603;49.300;8.880;2023-02-18T07:25:14;10.80;99.90
65036;DHT22;51603;49.300;8.880;2023-02-18T07:27:40;10.80;99.90
65036;DHT22;51603;49.300;8.880;2023-02-18T07:30:06;10.90;99.90
65036;DHT22;51603;49.300;8.880;2023-02-18T07:32:32;11.00;99.90
65036;DHT22;51603;49.300;8.880;2023-02-18T07:34:58;11.00;99.90
65036;DHT22;51603;49.300;8.880;2023-02-18T07:37:23;11.20;99.90
65036;DHT22;51603;49.300;8.880;2023-02-18T07:39:49;11.10;99.90
65036;DHT22;51603;49.300;8.880;2023-02-18T07:42:14;11.20;99.90
65036;DHT22;51603;49.300;8.880;2023-02-18T07:44:40;11.20;99.90
65036;DHT22;51603;49.300;8.880;2023-02-18T07:47:07;11.20;99.90
65036;DHT22;51603;49.300;8.880;2023-02-18T07:49:34;11.20;99.90
65036;DHT22;51603;49.300;8.880;2023-02-18T07:51:59;11.20;99.90
65036;DHT22;51603;49.300;8.880;2023-02-18T07:54:26;11.20;99.90
65036;DHT22;51603;49.300;8.880;2023-02-18T07:56:52;11.30;99.90
65036;DHT22;51603;49.300;8.880;2023-02-18T07:59:19;11.30;99.90
65036;DHT22;51603;49.300;8.880;2023-02-18T08:01:45;11.40;99.90
65036;DHT22;51603;49.300;8.880;2023-02-18T08:04:10;11.30;99.90
65036;DHT22;51603;49.300;8.880;2023-02-18T08:06:44;11.40;99.90
65036;DHT22;51603;49.300;8.880;2023-02-18T08:09:11;11.40;99.90
65036;DHT22;51603;49.300;8.880;2023-02-18T08:11:37;11.40;99.90
65036;DHT22;51603;49.300;8.880;2023-02-18T08:14:03;11.50;99.90
65036;DHT22;51603;49.300;8.880;2023-02-18T08:16:29;11.50;99.90
65036;DHT22;51603;49.300;8.880;2023-02-18T08:18:54;11.60;99.90
65036;DHT22;51603;49.300;8.880;2023-02-18T08:21:22;11.60;99.90
65036;DHT22;51603;49.300;8.880;2023-02-18T08:23:48;11.60;99.90
65036;DHT22;51603;49.300;8.880;2023-02-18T08:26:14;11.60;99.90
65036;DHT22;51603;49.300;8.880;2023-02-18T08:28:39;11.70;99.90
65036;DHT22;51603;49.300;8.880;2023-02-18T08:31:05;11.70;99.90
65036;DHT22;51603;49.300;8.880;2023-02-18T08:33:32;11.70;99.90
65036;DHT22;51603;49.300;8.880;2023-02-18T08:35:57;11.70;99.90
65036;DHT22;51603;49.300;8.880;2023-02-18T08:38:24;11.80;99.90
65036;DHT22;51603;49.300;8.880;2023-02-18T08:40:50;11.70;99.90
65036;DHT22;51603;49.300;8.880;2023-02-18T08:43:16;11.80;99.90
65036;DHT22;51603;49.300;8.880;2023-02-18T08:45:43;11.80;99.90
65036;DHT22;51603;49.300;8.880;2023-02-18T08:48:10;11.80;99.90
65036;DHT22;51603;49.300;8.880;2023-02-18T08:50:36;11.90;99.90
65036;DHT22;51603;49.300;8.880;2023-02-18T08:53:02;11.90;99.90
65036;DHT22;51603;49.300;8.880;2023-02-18T08:55:32;11.90;99.90
65036;DHT22;51603;49.300;8.880;2023-02-18T08:57:59;11.90;99.90
65036;DHT22;51603;49.300;8.880;2023-02-18T09:00:25;11.90;99.90
65036;DHT22;51603;49.300;8.880;2023-02-18T09:02:51;11.90;99.90
65036;DHT22;51603;49.300;8.880;2023-02-18T09:05:16;12.00;99.90
65036;DHT22;51603;49.300;8.880;2023-02-18T09:07:42;12.00;99.90
65036;DHT22;51603;49.300;8.880;2023-02-18T09:10:09;12.10;99.90
65036;DHT22;51603;49.300;8.880;2023-02-18T09:12:34;12.10;99.90
65036;DHT22;51603;49.300;8.880;2023-02-18T09:15:00;12.10;99.90
65036;DHT22;51603;49.300;8.880;2023-02-18T09:17:26;12.10;99.90
65036;DHT22;51603;49.300;8.880;2023-02-18T09:19:52;12.20;99.90
65036;DHT22;51603;49.300;8.880;2023-02-18T09:22:19;12.20;99.90
65036;DHT22;51603;49.300;8.880;2023-02-18T09:24:45;12.20;99.90
65036;DHT22;51603;49.300;8.880;2023-02-18T09:27:10;12.20;99.90
65036;DHT22;51603;49.300;8.880;2023-02-18T09:29:40;12.30;99.90
65036;DHT22;51603;49.300;8.880;2023-02-18T09:32:07;12.30;99.90
65036;DHT22;51603;49.300;8.880;2023-02-18T09:34:33;12.30;99.90
65036;DHT22;51603;49.300;8.880;2023-02-18T09:36:59;12.30;99.90
65036;DHT22;51603;49.300;8.880;2023-02-18T09:39:24;12.30;99.90
65036;DHT22;51603;49.300;8.880;2023-02-18T09:41:56;12.30;99.90
65036;DHT22;51603;49.300;8.880;2023-02-18T09:44:26;12.40;99.90
65036;DHT22;51603;49.300;8.880;2023-02-18T09:49:26;12.40;99.90
65036;DHT22;51603;49.300;8.880;2023-02-18T09:51:53;12.50;99.90
65036;DHT22;51603;49.300;8.880;2023-02-18T09:54:20;12.50;99.90
65036;DHT22;51603;49.300;8.880;2023-02-18T09:56:46;12.50;99.90
65036;DHT22;51603;49.300;8.880;2023-02-18T09:59:19;12.50;99.90
65036;DHT22;51603;49.300;8.880;2023-02-18T10:01:47;12.60;99.90
65036;DHT22;51603;49.300;8.880;2023-02-18T10:04:40;12.60;99.90
65036;DHT22;51603;49.300;8.880;2023-02-18T10:07:17;12.70;99.90
65036;DHT22;51603;49.300;8.880;2023-02-18T10:09:44;12.60;99.90
65036;DHT22;51603;49.300;8.880;2023-02-18T10:12:12;12.70;99.90
65036;DHT22;51603;49.300;8.880;2023-02-18T10:14:39;12.70;99.90
65036;DHT22;51603;49.300;8.880;2023-02-18T10:17:06;12.70;99.90
65036;DHT22;51603;49.300;8.880;2023-02-18T10:19:36;12.80;99.90
65036;DHT22;51603;49.300;8.880;2023-02-18T10:22:04;12.70;99.90
65036;DHT22;51603;49.300;8.880;2023-02-18T10:24:34;12.80;99.90
65036;DHT22;51603;49.300;8.880;2023-02-18T10:27:04;12.80;99.90
65036;DHT22;51603;49.300;8.880;2023-02-18T10:29:29;12.80;99.90
65036;DHT22;51603;49.300;8.880;2023-02-18T10:34:45;12.80;99.90
65036;DHT22;51603;49.300;8.880;2023-02-18T10:37:30;12.80;99.90
65036;DHT22;51603;49.300;8.880;2023-02-18T10:40:15;12.90;99.90
65036;DHT22;51603;49.300;8.880;2023-02-18T10:50:45;13.10;99.90
65036;DHT22;51603;49.300;8.880;2023-02-18T10:53:33;13.20;99.90
65036;DHT22;51603;49.300;8.880;2023-02-18T10:55:59;13.30;99.90
65036;DHT22;51603;49.300;8.880;2023-02-18T10:58:41;13.20;99.90
65036;DHT22;51603;49.300;8.880;2023-02-18T11:01:14;13.30;99.90
65036;DHT22;51603;49.300;8.880;2023-02-18T11:03:49;13.30;99.90
65036;DHT22;51603;49.300;8.880;2023-02-18T11:06:19;13.20;99.90
65036;DHT22;51603;49.300;8.880;2023-02-18T11:08:46;13.10;99.90
65036;DHT22;51603;49.300;8.880;2023-02-18T11:11:22;13.10;99.90
65036;DHT22;51603;49.300;8.880;2023-02-18T11:13:59;13.00;99.90
65036;DHT22;51603;49.300;8.880;2023-02-18T11:16:43;13.00;99.90
65036;DHT22;51603;49.300;8.880;2023-02-18T11:19:34;13.00;99.90
65036;DHT22;51603;49.300;8.880;2023-02-18T11:22:15;12.90;99.90
65036;DHT22;51603;49.300;8.880;2023-02-18T11:24:43;12.90;99.90
65036;DHT22;51603;49.300;8.880;2023-02-18T11:27:40;12.90;99.90
65036;DHT22;51603;49.300;8.880;2023-02-18T11:30:18;12.90;99.90
65036;DHT22;51603;49.300;8.880;2023-02-18T11:32:52;12.90;99.90
65036;DHT22;51603;49.300;8.880;2023-02-18T11:35:21;12.90;99.90
65036;DHT22;51603;49.300;8.880;2023-02-18T11:37:47;12.90;99.90
65036;DHT22;51603;49.300;8.880;2023-02-18T11:43:11;13.00;99.90
65036;DHT22;51603;49.300;8.880;2023-02-18T11:45:38;13.00;99.90
65036;DHT22;51603;49.300;8.880;2023-02-18T11:48:18;13.00;99.90
65036;DHT22;51603;49.300;8.880;2023-02-18T11:50:50;13.00;99.90
65036;DHT22;51603;49.300;8.880;2023-02-18T11:56:32;13.10;99.90
65036;DHT22;51603;49.300;8.880;2023-02-18T11:58:59;13.10;99.90
65036;DHT22;51603;49.300;8.880;2023-02-18T12:01:44;13.00;99.90
65036;DHT22;51603;49.300;8.880;2023-02-18T12:04:18;13.00;99.90
65036;DHT22;51603;49.300;8.880;2023-02-18T12:09:51;13.00;99.90
65036;DHT22;51603;49.300;8.880;2023-02-18T12:12:29;13.00;99.90
65036;DHT22;51603;49.300;8.880;2023-02-18T12:14:56;13.00;99.90
65036;DHT22;51603;49.300;8.880;2023-02-18T12:28:56;13.10;99.90
65036;DHT22;51603;49.300;8.880;2023-02-18T12:32:23;13.10;99.90
65036;DHT22;51603;49.300;8.880;2023-02-18T12:45:03;13.10;99.90
65036;DHT22;51603;49.300;8.880;2023-02-18T12:47:41;13.10;99.90
65036;DHT22;51603;49.300;8.880;2023-02-18T12:53:27;13.20;99.90
65036;DHT22;51603;49.300;8.880;2023-02-18T12:56:22;13.20;99.90
65036;DHT22;51603;49.300;8.880;2023-02-18T13:01:51;13.20;99.90
65036;DHT22;51603;49.300;8.880;2023-02-18T13:04:35;13.20;99.90
65036;DHT22;51603;49.300;8.880;2023-02-18T13:13:20;13.00;99.90
65036;DHT22;51603;49.300;8.880;2023-02-18T13:15:59;13.00;99.90
65036;DHT22;51603;49.300;8.880;2023-02-18T13:18:30;13.00;99.90
65036;DHT22;51603;49.300;8.880;2023-02-18T13:21:02;13.10;99.90
65036;DHT22;51603;49.300;8.880;2023-02-18T13:23:39;13.10;99.90
65036;DHT22;51603;49.300;8.880;2023-02-18T13:26:12;13.10;99.90
65036;DHT22;51603;49.300;8.880;2023-02-18T13:28:54;13.20;99.90
65036;DHT22;51603;49.300;8.880;2023-02-18T13:32:11;13.40;99.90
65036;DHT22;51603;49.300;8.880;2023-02-18T13:39:38;14.00;99.90
65036;DHT22;51603;49.300;8.880;2023-02-18T13:55:38;13.70;99.90
65036;DHT22;51603;49.300;8.880;2023-02-18T13:58:04;13.60;99.90
65036;DHT22;51603;49.300;8.880;2023-02-18T14:00:39;13.50;99.90
65036;DHT22;51603;49.300;8.880;2023-02-18T14:03:38;13.50;99.90
65036;DHT22;51603;49.300;8.880;2023-02-18T14:08:46;13.40;99.90
65036;DHT22;51603;49.300;8.880;2023-02-18T14:13:46;13.30;99.90
65036;DHT22;51603;49.300;8.880;2023-02-18T14:16:12;13.40;99.90
65036;DHT22;51603;49.300;8.880;2023-02-18T14:21:17;13.30;99.90
65036;DHT22;51603;49.300;8.880;2023-02-18T14:23:55;13.20;99.90
65036;DHT22;51603;49.300;8.880;2023-02-18T14:26:28;13.10;99.90
65036;DHT22;51603;49.300;8.880;2023-02-18T14:29:19;13.00;99.90
65036;DHT22;51603;49.300;8.880;2023-02-18T14:41:58;12.60;99.90
65036;DHT22;51603;49.300;8.880;2023-02-18T14:47:47;12.60;99.90
65036;DHT22;51603;49.300;8.880;2023-02-18T14:50:15;12.60;99.90
65036;DHT22;51603;49.300;8.880;2023-02-18T14:52:49;12.60;99.90
65036;DHT22;51603;49.300;8.880;2023-02-18T14:55:22;12.60;99.90
65036;DHT22;51603;49.300;8.880;2023-02-18T14:57:54;12.50;99.90
65036;DHT22;51603;49.300;8.880;2023-02-18T15:00:25;12.50;99.90
65036;DHT22;51603;49.300;8.880;2023-02-18T15:02:56;12.40;99.90
65036;DHT22;51603;49.300;8.880;2023-02-18T15:05:28;12.40;99.90
65036;DHT22;51603;49.300;8.880;2023-02-18T15:10:21;12.30;99.90
65036;DHT22;51603;49.300;8.880;2023-02-18T15:12:47;12.30;99.90
65036;DHT22;51603;49.300;8.880;2023-02-18T15:15:14;12.30;99.90
65036;DHT22;51603;49.300;8.880;2023-02-18T15:17:48;12.20;99.90
65036;DHT22;51603;49.300;8.880;2023-02-18T15:20:14;12.20;99.90
65036;DHT22;51603;49.300;8.880;2023-02-18T15:22:40;12.20;99.90
65036;DHT22;51603;49.300;8.880;2023-02-18T15:25:10;12.20;99.90
65036;DHT22;51603;49.300;8.880;2023-02-18T15:27:40;12.20;99.90
65036;DHT22;51603;49.300;8.880;2023-02-18T15:32:55;12.10;99.90
65036;DHT22;51603;49.300;8.880;2023-02-18T15:35:22;12.10;99.90
65036;DHT22;51603;49.300;8.880;2023-02-18T15:37:53;12.10;99.90
65036;DHT22;51603;49.300;8.880;2023-02-18T15:40:21;12.00;99.90
65036;DHT22;51603;49.300;8.880;2023-02-18T15:42:50;12.00;99.90
65036;DHT22;51603;49.300;8.880;2023-02-18T15:45:22;12.00;99.90
65036;DHT22;51603;49.300;8.880;2023-02-18T15:47:52;12.00;99.90
65036;DHT22;51603;49.300;8.880;2023-02-18T15:50:24;12.00;99.90
65036;DHT22;51603;49.300;8.880;2023-02-18T15:52:51;11.90;99.90
65036;DHT22;51603;49.300;8.880;2023-02-18T15:55:29;11.90;99.90
65036;DHT22;51603;49.300;8.880;2023-02-18T15:57:56;11.90;99.90
65036;DHT22;51603;49.300;8.880;2023-02-18T16:00:28;11.90;99.90
65036;DHT22;51603;49.300;8.880;2023-02-18T16:06:30;11.80;99.90
65036;DHT22;51603;49.300;8.880;2023-02-18T16:09:10;11.80;99.90
65036;DHT22;51603;49.300;8.880;2023-02-18T16:11:50;11.80;99.90
65036;DHT22;51603;49.300;8.880;2023-02-18T16:14:44;11.80;99.90
65036;DHT22;51603;49.300;8.880;2023-02-18T16:19:58;11.70;99.90
65036;DHT22;51603;49.300;8.880;2023-02-18T16:22:31;11.70;99.90
65036;DHT22;51603;49.300;8.880;2023-02-18T16:25:20;11.70;99.90
65036;DHT22;51603;49.300;8.880;2023-02-18T16:30:30;11.60;99.90
65036;DHT22;51603;49.300;8.880;2023-02-18T16:32:56;11.60;99.90
65036;DHT22;51603;49.300;8.880;2023-02-18T16:35:23;11.60;99.90
65036;DHT22;51603;49.300;8.880;2023-02-18T16:37:52;11.50;99.90
65036;DHT22;51603;49.300;8.880;2023-02-18T16:42:49;11.50;99.90
65036;DHT22;51603;49.300;8.880;2023-02-18T16:45:15;11.40;99.90
65036;DHT22;51603;49.300;8.880;2023-02-18T16:47:43;11.40;99.90
65036;DHT22;51603;49.300;8.880;2023-02-18T16:50:17;11.40;99.90
65036;DHT22;51603;49.300;8.880;2023-02-18T16:52:44;11.40;99.90
65036;DHT22;51603;49.300;8.880;2023-02-18T16:57:41;11.30;99.90
65036;DHT22;51603;49.300;8.880;2023-02-18T17:00:07;11.30;99.90
65036;DHT22;51603;49.300;8.880;2023-02-18T17:02:33;11.30;99.90
65036;DHT22;51603;49.300;8.880;2023-02-18T17:05:00;11.30;99.90
65036;DHT22;51603;49.300;8.880;2023-02-18T17:07:25;11.30;99.90
65036;DHT22;51603;49.300;8.880;2023-02-18T17:09:51;11.30;99.90
65036;DHT22;51603;49.300;8.880;2023-02-18T17:12:16;11.20;99.90
65036;DHT22;51603;49.300;8.880;2023-02-18T17:14:42;11.20;99.90
65036;DHT22;51603;49.300;8.880;2023-02-18T17:17:11;11.20;99.90
65036;DHT22;51603;49.300;8.880;2023-02-18T17:19:42;11.20;99.90
65036;DHT22;51603;49.300;8.880;2023-02-18T17:22:10;11.20;99.90
65036;DHT22;51603;49.300;8.880;2023-02-18T17:24:37;11.20;99.90
65036;DHT22;51603;49.300;8.880;2023-02-18T17:27:03;11.20;99.90
65036;DHT22;51603;49.300;8.880;2023-02-18T17:29:28;11.20;99.90
65036;DHT22;51603;49.300;8.880;2023-02-18T17:31:54;11.20;99.90
65036;DHT22;51603;49.300;8.880;2023-02-18T17:34:25;11.10;99.90
65036;DHT22;51603;49.300;8.880;2023-02-18T17:36:52;11.10;99.90
65036;DHT22;51603;49.300;8.880;2023-02-18T17:39:19;11.10;99.90
65036;DHT22;51603;49.300;8.880;2023-02-18T17:41:45;11.10;99.90
65036;DHT22;51603;49.300;8.880;2023-02-18T17:44:21;11.10;99.90
65036;DHT22;51603;49.300;8.880;2023-02-18T17:46:48;11.10;99.90
65036;DHT22;51603;49.300;8.880;2023-02-18T17:49:17;11.10;99.90
65036;DHT22;51603;49.300;8.880;2023-02-18T17:51:43;11.00;99.90
65036;DHT22;51603;49.300;8.880;2023-02-18T17:54:13;11.00;99.90
65036;DHT22;51603;49.300;8.880;2023-02-18T17:56:40;11.00;99.90
65036;DHT22;51603;49.300;8.880;2023-02-18T17:59:05;11.00;99.90
65036;DHT22;51603;49.300;8.880;2023-02-18T18:01:31;11.00;99.90
65036;DHT22;51603;49.300;8.880;2023-02-18T18:03:56;11.00;99.90
65036;DHT22;51603;49.300;8.880;2023-02-18T18:06:22;10.90;99.90
65036;DHT22;51603;49.300;8.880;2023-02-18T18:08:48;10.90;99.90
65036;DHT22;51603;49.300;8.880;2023-02-18T18:11:19;10.90;99.90